createdAt,value
2022-10-19T00:00:31.306Z,101171.44
2022-10-19T00:03:01.552Z,101172.04
2022-10-19T00:05:31.786Z,101172.48
2022-10-19T00:08:02.896Z,101174.31
2022-10-19T00:10:33.365Z,101179.48
2022-10-19T00:13:03.685Z,101177.44
2022-10-19T00:15:33.915Z,101174.86
2022-10-19T00:18:04.141Z,101178.25
2022-10-19T00:20:34.389Z,101175.48
2022-10-19T00:23:04.634Z,101176.23
2022-10-19T00:25:34.861Z,101176.81
2022-10-19T00:28:05.460Z,101178.81
2022-10-19T00:30:39.125Z,101183.27
2022-10-19T00:33:09.384Z,101182.25
2022-10-19T00:35:43.902Z,101179.14
2022-10-19T00:38:14.106Z,101178.30
2022-10-19T00:40:44.555Z,101176.92
2022-10-19T00:43:17.327Z,101171.50
2022-10-19T00:45:47.567Z,101172.06
2022-10-19T00:48:22.104Z,101169.83
2022-10-19T00:50:54.810Z,101171.45
2022-10-19T00:53:27.379Z,101176.58
2022-10-19T00:55:58.416Z,101174.14
2022-10-19T00:58:28.813Z,101174.70
2022-10-19T01:01:00.194Z,101172.27
2022-10-19T01:03:30.602Z,101174.08
2022-10-19T01:06:01.788Z,101174.65
2022-10-19T01:08:32.953Z,101173.10
2022-10-19T01:11:14.293Z,101168.20
2022-10-19T01:13:56.029Z,101168.38
2022-10-19T01:16:38.710Z,101167.33
2022-10-19T01:19:28.311Z,101168.73
2022-10-19T01:22:11.321Z,101165.41
2022-10-19T01:24:57.437Z,101165.74
2022-10-19T01:27:53.562Z,101163.81
2022-10-19T01:30:35.955Z,101153.98
2022-10-19T01:33:28.591Z,101157.33
2022-10-19T01:36:07.136Z,101155.08
2022-10-19T01:38:46.205Z,101149.31
2022-10-19T01:41:21.879Z,101150.59
2022-10-19T01:44:01.109Z,101147.48
2022-10-19T01:46:36.683Z,101149.96
2022-10-19T01:49:14.799Z,101147.87
2022-10-19T01:51:50.899Z,101152.27
2022-10-19T01:54:23.446Z,101150.35
2022-10-19T01:56:55.856Z,101156.33
2022-10-19T01:59:27.288Z,101155.26
2022-10-19T02:01:58.991Z,101153.16
2022-10-19T02:04:29.731Z,101146.11
2022-10-19T02:07:00.614Z,101140.85
2022-10-19T02:09:31.224Z,101146.30
2022-10-19T02:12:06.103Z,101148.05
2022-10-19T02:14:39.542Z,101153.10
2022-10-19T02:17:12.496Z,101148.70
2022-10-19T02:19:42.887Z,101146.59
2022-10-19T02:22:14.289Z,101142.55
2022-10-19T02:24:44.554Z,101143.07
2022-10-19T02:27:15.119Z,101142.86
2022-10-19T02:29:45.773Z,101147.40
2022-10-19T02:32:16.202Z,101142.48
2022-10-19T02:34:48.880Z,101140.52
2022-10-19T02:37:21.021Z,101135.95
2022-10-19T02:39:53.684Z,101141.00
2022-10-19T02:42:29.488Z,101142.94
2022-10-19T02:45:02.709Z,101143.46
2022-10-19T02:47:37.022Z,101146.11
2022-10-19T02:50:09.962Z,101142.77
2022-10-19T02:52:41.111Z,101145.27
2022-10-19T02:55:11.865Z,101143.66
2022-10-19T02:57:42.191Z,101142.11
2022-10-19T03:00:13.950Z,101139.66
2022-10-19T03:02:44.404Z,101140.39
2022-10-19T03:05:17.704Z,101140.56
2022-10-19T03:07:47.961Z,101139.00
2022-10-19T03:10:18.571Z,101134.46
2022-10-19T03:12:48.804Z,101137.47
2022-10-19T03:15:20.377Z,101135.20
2022-10-19T03:17:53.150Z,101136.64
2022-10-19T03:20:23.416Z,101136.15
2022-10-19T03:25:29.150Z,101145.86
2022-10-19T03:27:59.387Z,101133.95
2022-10-19T03:30:29.723Z,101129.76
2022-10-19T03:33:03.149Z,101140.80
2022-10-19T03:35:33.381Z,101141.55
2022-10-19T03:38:03.615Z,101141.92
2022-10-19T03:40:33.819Z,101137.20
2022-10-19T03:43:04.146Z,101139.13
2022-10-19T03:45:34.402Z,101136.87
2022-10-19T03:48:04.780Z,101136.19
2022-10-19T03:50:35.042Z,101134.61
2022-10-19T03:53:05.290Z,101124.11
2022-10-19T03:55:35.566Z,101127.45
2022-10-19T03:58:06.063Z,101128.52
2022-10-19T04:00:36.326Z,101128.69
2022-10-19T04:03:06.789Z,101128.88
2022-10-19T04:05:37.037Z,101124.52
2022-10-19T04:08:07.831Z,101128.73
2022-10-19T04:10:38.073Z,101130.48
2022-10-19T04:13:08.311Z,101132.61
2022-10-19T04:15:38.504Z,101142.42
2022-10-19T04:18:08.779Z,101135.95
2022-10-19T04:20:42.716Z,101135.77
2022-10-19T04:23:14.014Z,101138.77
2022-10-19T04:25:44.284Z,101141.42
2022-10-19T04:28:14.498Z,101144.41
2022-10-19T04:30:44.732Z,101143.20
2022-10-19T04:33:15.021Z,101143.18
2022-10-19T04:35:45.292Z,101141.96
2022-10-19T04:38:15.638Z,101147.22
2022-10-19T04:40:45.850Z,101148.45
2022-10-19T04:43:16.070Z,101152.32
2022-10-19T04:45:46.355Z,101154.25
2022-10-19T04:48:16.551Z,101146.89
2022-10-19T04:50:46.775Z,101147.41
2022-10-19T04:53:17.855Z,101147.95
2022-10-19T04:55:48.098Z,101146.02
2022-10-19T04:58:18.389Z,101143.57
2022-10-19T05:00:48.714Z,101140.07
2022-10-19T05:03:19.305Z,101139.38
2022-10-19T05:05:49.565Z,101142.02
2022-10-19T05:08:20.348Z,101147.31
2022-10-19T05:10:50.572Z,101142.43
2022-10-19T05:13:20.823Z,101145.77
2022-10-19T05:15:59.355Z,101138.43
2022-10-19T05:18:29.966Z,101147.89
2022-10-19T05:21:08.963Z,101147.55
2022-10-19T05:23:39.852Z,101150.52
2022-10-19T05:26:12.592Z,101152.81
2022-10-19T05:28:42.901Z,101150.37
2022-10-19T05:31:15.009Z,101148.97
2022-10-19T05:33:46.182Z,101149.33
2022-10-19T05:36:19.076Z,101149.84
2022-10-19T05:38:51.764Z,101155.98
2022-10-19T05:41:22.564Z,101155.96
2022-10-19T05:43:56.796Z,101166.30
2022-10-19T05:46:28.530Z,101166.11
2022-10-19T05:49:00.131Z,101163.48
2022-10-19T05:51:30.829Z,101161.91
2022-10-19T05:54:01.186Z,101164.36
2022-10-19T05:56:32.964Z,101166.46
2022-10-19T05:59:05.819Z,101163.66
2022-10-19T06:01:37.242Z,101166.45
2022-10-19T06:04:07.730Z,101168.73
2022-10-19T06:06:38.208Z,101172.91
2022-10-19T06:09:08.721Z,101169.95
2022-10-19T06:11:41.013Z,101176.94
2022-10-19T06:14:15.810Z,101180.44
2022-10-19T06:16:46.822Z,101182.89
2022-10-19T06:19:17.036Z,101185.68
2022-10-19T06:21:47.989Z,101191.11
2022-10-19T06:24:18.211Z,101187.42
2022-10-19T06:26:48.475Z,101188.29
2022-10-19T06:29:19.011Z,101192.83
2022-10-19T06:31:50.537Z,101193.69
2022-10-19T06:34:21.232Z,101193.52
2022-10-19T06:36:51.478Z,101196.67
2022-10-19T06:39:21.758Z,101201.56
2022-10-19T06:41:52.050Z,101199.98
2022-10-19T06:44:23.604Z,101205.94
2022-10-19T06:46:53.807Z,101201.71
2022-10-19T06:49:24.066Z,101208.17
2022-10-19T06:51:54.401Z,101206.26
2022-10-19T06:54:25.604Z,101201.34
2022-10-19T06:56:55.931Z,101204.65
2022-10-19T06:59:26.293Z,101206.89
2022-10-19T07:01:56.616Z,101207.38
2022-10-19T07:04:26.904Z,101206.83
2022-10-19T07:06:57.171Z,101206.97
2022-10-19T07:09:27.552Z,101205.33
2022-10-19T07:11:58.020Z,101211.45
2022-10-19T07:14:28.504Z,101213.87
2022-10-19T07:17:01.127Z,101212.97
2022-10-19T07:19:32.272Z,101215.73
2022-10-19T07:22:02.485Z,101220.30
2022-10-19T07:24:32.761Z,101230.55
2022-10-19T07:27:03.300Z,101227.36
2022-10-19T07:29:33.557Z,101230.16
2022-10-19T07:32:04.207Z,101231.02
2022-10-19T07:34:35.993Z,101235.50
2022-10-19T07:37:06.810Z,101237.34
2022-10-19T07:39:37.639Z,101234.17
2022-10-19T07:42:07.883Z,101231.88
2022-10-19T07:44:38.152Z,101228.94
2022-10-19T07:47:08.399Z,101233.28
2022-10-19T07:49:38.800Z,101233.41
2022-10-19T07:52:09.045Z,101227.05
2022-10-19T07:54:39.314Z,101234.80
2022-10-19T07:57:11.996Z,101230.39
2022-10-19T07:59:42.288Z,101236.37
2022-10-19T08:02:17.142Z,101241.13
2022-10-19T08:05:07.455Z,101238.66
2022-10-19T08:07:37.902Z,101235.06
2022-10-19T08:10:09.611Z,101234.65
2022-10-19T08:12:39.846Z,101237.03
2022-10-19T08:15:11.130Z,101240.63
2022-10-19T08:17:41.435Z,101238.98
2022-10-19T08:20:12.527Z,101243.91
2022-10-19T08:22:45.171Z,101236.96
2022-10-19T08:25:15.700Z,101235.66
2022-10-19T08:27:45.992Z,101237.55
2022-10-19T08:30:16.273Z,101229.98
2022-10-19T08:32:46.621Z,101229.68
2022-10-19T08:35:16.933Z,101234.56
2022-10-19T08:37:47.624Z,101225.65
2022-10-19T08:40:23.943Z,101234.36
2022-10-19T08:42:59.281Z,101224.97
2022-10-19T08:48:25.992Z,101231.78
2022-10-19T08:50:57.741Z,101233.12
2022-10-19T08:53:38.341Z,101230.26
2022-10-19T08:56:45.859Z,101227.00
2022-10-19T08:59:22.717Z,101228.25
2022-10-19T09:01:55.978Z,101233.47
2022-10-19T09:04:29.171Z,101230.36
2022-10-19T09:07:21.544Z,101223.16
2022-10-19T09:09:55.886Z,101227.12
2022-10-19T09:12:38.412Z,101226.01
2022-10-19T09:15:12.653Z,101224.33
2022-10-19T09:17:43.070Z,101229.59
2022-10-19T09:20:23.722Z,101233.27
2022-10-19T09:23:03.964Z,101233.66
2022-10-19T09:25:39.266Z,101232.05
2022-10-19T09:28:33.953Z,101238.44
2022-10-19T09:31:12.867Z,101241.02
2022-10-19T09:33:46.306Z,101241.61
2022-10-19T09:36:22.928Z,101243.64
2022-10-19T09:38:58.361Z,101251.35
2022-10-19T09:41:29.196Z,101248.95
2022-10-19T09:44:00.309Z,101256.38
2022-10-19T09:46:38.637Z,101253.25
2022-10-19T09:49:09.176Z,101253.50
2022-10-19T09:51:50.712Z,101260.11
2022-10-19T09:54:33.165Z,101257.33
2022-10-19T09:57:04.528Z,101263.48
2022-10-19T09:59:37.742Z,101261.86
2022-10-19T10:02:22.576Z,101263.76
2022-10-19T10:05:04.534Z,101266.27
2022-10-19T10:07:39.106Z,101268.88
2022-10-19T10:10:30.410Z,101268.27
2022-10-19T10:13:02.701Z,101272.84
2022-10-19T10:15:43.148Z,101262.33
2022-10-19T10:18:16.985Z,101254.55
2022-10-19T10:21:03.875Z,101258.37
2022-10-19T10:23:37.665Z,101264.27
2022-10-19T10:26:18.885Z,101262.77
2022-10-19T10:28:53.907Z,101255.58
2022-10-19T10:31:33.290Z,101257.59
2022-10-19T10:34:16.319Z,101252.30
2022-10-19T10:36:56.386Z,101252.30
2022-10-19T10:39:28.775Z,101248.77
2022-10-19T10:42:04.106Z,101246.41
2022-10-19T10:44:36.877Z,101249.14
2022-10-19T10:47:14.369Z,101248.34
2022-10-19T10:49:46.558Z,101249.06
2022-10-19T10:52:19.591Z,101250.52
2022-10-19T10:55:02.364Z,101251.66
2022-10-19T10:57:37.573Z,101250.16
2022-10-19T11:00:13.988Z,101250.45
2022-10-19T11:02:50.463Z,101250.33
2022-10-19T11:05:25.165Z,101246.88
2022-10-19T11:08:02.094Z,101248.56
2022-10-19T11:10:36.152Z,101247.09
2022-10-19T11:13:15.133Z,101243.78
2022-10-19T11:15:53.387Z,101241.48
2022-10-19T11:18:26.726Z,101242.96
2022-10-19T11:21:05.518Z,101239.19
2022-10-19T11:23:54.531Z,101235.82
2022-10-19T11:26:39.907Z,101237.02
2022-10-19T11:29:30.303Z,101239.27
2022-10-19T11:32:00.602Z,101241.52
2022-10-19T11:34:47.172Z,101245.18
2022-10-19T11:37:26.943Z,101254.79
2022-10-19T11:40:10.222Z,101254.69
2022-10-19T11:42:54.360Z,101255.09
2022-10-19T11:45:35.280Z,101255.52
2022-10-19T11:48:22.986Z,101257.70
2022-10-19T11:51:16.970Z,101253.55
2022-10-19T11:54:09.933Z,101252.04
2022-10-19T11:57:03.207Z,101251.73
2022-10-19T11:59:47.610Z,101248.05
2022-10-19T12:02:40.973Z,101250.17
2022-10-19T12:05:17.179Z,101251.02
2022-10-19T12:08:02.912Z,101250.98
2022-10-19T12:10:41.197Z,101252.48
2022-10-19T12:13:16.970Z,101250.55
2022-10-19T12:15:50.259Z,101250.95
2022-10-19T12:18:25.922Z,101252.75
2022-10-19T12:21:00.040Z,101249.62
2022-10-19T12:23:36.232Z,101254.77
2022-10-19T12:26:09.620Z,101255.36
2022-10-19T12:28:43.382Z,101255.41
2022-10-19T12:31:14.258Z,101261.27
2022-10-19T12:33:50.531Z,101256.55
2022-10-19T12:36:33.821Z,101260.48
2022-10-19T12:39:12.349Z,101261.95
2022-10-19T12:41:52.584Z,101261.86
2022-10-19T12:44:54.941Z,101259.27
2022-10-19T12:47:28.149Z,101262.96
2022-10-19T12:49:59.809Z,101257.64
2022-10-19T12:52:45.760Z,101261.23
2022-10-19T12:55:28.151Z,101261.19
2022-10-19T12:58:05.084Z,101261.31
2022-10-19T13:00:34.933Z,101261.65
2022-10-19T13:03:08.684Z,101260.82
2022-10-19T13:05:39.970Z,101257.87
2022-10-19T13:08:13.773Z,101256.85
2022-10-19T13:11:05.603Z,101254.59
2022-10-19T13:13:57.338Z,101263.95
2022-10-19T13:16:59.981Z,101259.77
2022-10-19T13:19:30.717Z,101259.31
2022-10-19T13:22:28.113Z,101259.03
2022-10-19T13:25:28.091Z,101263.45
2022-10-19T13:28:02.576Z,101262.09
2022-10-19T13:31:06.168Z,101260.20
2022-10-19T13:33:54.024Z,101257.75
2022-10-19T13:36:26.071Z,101260.55
2022-10-19T13:39:12.804Z,101263.73
2022-10-19T13:41:53.842Z,101260.73
2022-10-19T13:44:28.790Z,101263.92
2022-10-19T13:47:18.743Z,101260.77
2022-10-19T13:50:08.839Z,101257.43
2022-10-19T13:53:01.710Z,101256.16
2022-10-19T13:55:49.361Z,101256.80
2022-10-19T13:58:41.385Z,101254.07
2022-10-19T14:01:24.887Z,101245.18
2022-10-19T14:04:14.884Z,101242.31
2022-10-19T14:06:48.828Z,101244.20
2022-10-19T14:09:45.327Z,101246.42
2022-10-19T14:12:23.498Z,101252.20
2022-10-19T14:14:54.301Z,101248.85
2022-10-19T14:17:27.985Z,101237.61
2022-10-19T14:19:59.983Z,101230.27
2022-10-19T14:22:33.731Z,101235.55
2022-10-19T14:25:17.311Z,101232.77
2022-10-19T14:27:49.084Z,101235.11
2022-10-19T14:30:26.537Z,101236.23
2022-10-19T14:33:01.138Z,101234.02
2022-10-19T14:35:37.512Z,101234.95
2022-10-19T14:38:09.311Z,101240.08
2022-10-19T14:40:43.118Z,101241.80
2022-10-19T14:43:23.458Z,101243.86
2022-10-19T14:46:17.049Z,101246.46
2022-10-19T14:48:48.694Z,101246.27
2022-10-19T14:51:29.540Z,101244.86
2022-10-19T14:54:05.592Z,101243.09
2022-10-19T14:56:41.138Z,101244.70
2022-10-19T14:59:27.819Z,101243.34
2022-10-19T15:02:00.342Z,101242.50
2022-10-19T15:04:35.276Z,101245.50
2022-10-19T15:07:15.337Z,101241.66
2022-10-19T15:09:53.215Z,101241.52
2022-10-19T15:12:27.405Z,101239.29
2022-10-19T15:14:59.088Z,101244.79
2022-10-19T15:17:32.301Z,101242.70
2022-10-19T15:20:04.466Z,101238.65
2022-10-19T15:22:42.104Z,101239.73
2022-10-19T15:25:37.114Z,101241.89
2022-10-19T15:28:34.870Z,101246.14
2022-10-19T15:31:17.070Z,101243.52
2022-10-19T15:33:50.725Z,101238.48
2022-10-19T15:36:23.402Z,101237.63
2022-10-19T15:39:17.618Z,101245.91
2022-10-19T15:41:54.119Z,101248.05
2022-10-19T15:44:41.748Z,101245.48
2022-10-19T15:47:26.901Z,101249.54
2022-10-19T15:50:02.709Z,101253.44
2022-10-19T15:52:34.950Z,101250.31
2022-10-19T15:55:05.579Z,101252.09
2022-10-19T15:57:38.242Z,101250.54
2022-10-19T16:00:15.673Z,101251.96
2022-10-19T16:02:44.543Z,101252.35
2022-10-19T16:05:14.971Z,101262.39
2022-10-19T16:07:45.208Z,101260.50
2022-10-19T16:10:20.868Z,101260.86
2022-10-19T16:12:51.144Z,101259.30
2022-10-19T16:15:23.475Z,101258.45
2022-10-19T16:17:55.971Z,101258.69
2022-10-19T16:20:28.180Z,101257.83
2022-10-19T16:22:58.899Z,101263.48
2022-10-19T16:25:29.246Z,101264.02
2022-10-19T16:27:59.621Z,101265.10
2022-10-19T16:30:29.891Z,101272.31
2022-10-19T16:33:00.141Z,101274.10
2022-10-19T16:35:30.552Z,101278.50
2022-10-19T16:38:00.859Z,101278.85
2022-10-19T16:40:31.541Z,101284.83
2022-10-19T16:43:01.819Z,101280.98
2022-10-19T16:45:32.400Z,101286.95
2022-10-19T16:48:02.803Z,101289.94
2022-10-19T16:50:33.117Z,101291.16
2022-10-19T16:53:10.215Z,101287.14
2022-10-19T16:55:39.691Z,101291.52
2022-10-19T16:58:09.936Z,101290.12
2022-10-19T17:00:40.888Z,101299.95
2022-10-19T17:03:11.158Z,101307.13
2022-10-19T17:05:41.568Z,101307.34
2022-10-19T17:08:11.856Z,101308.21
2022-10-19T17:10:42.178Z,101322.42
2022-10-19T17:13:12.411Z,101329.14
2022-10-19T17:15:43.549Z,101327.77
2022-10-19T17:18:14.033Z,101330.04
2022-10-19T17:20:44.277Z,101333.73
2022-10-19T17:23:14.528Z,101333.73
2022-10-19T17:25:50.125Z,101334.27
2022-10-19T17:28:22.920Z,101341.11
2022-10-19T17:30:57.789Z,101344.96
2022-10-19T17:33:29.175Z,101347.23
2022-10-19T17:36:05.444Z,101350.58
2022-10-19T17:38:36.516Z,101354.27
2022-10-19T17:41:12.534Z,101358.98
2022-10-19T17:43:44.458Z,101358.11
2022-10-19T17:46:17.109Z,101357.23
2022-10-19T17:48:47.572Z,101363.71
2022-10-19T17:51:19.393Z,101363.55
2022-10-19T17:53:51.089Z,101366.00
2022-10-19T17:56:22.774Z,101364.79
2022-10-19T17:58:53.615Z,101370.39
2022-10-19T18:01:25.092Z,101372.85
2022-10-19T18:03:55.781Z,101372.86
2022-10-19T18:06:27.712Z,101375.32
2022-10-19T18:08:59.993Z,101378.30
2022-10-19T18:11:31.649Z,101381.11
2022-10-19T18:14:03.145Z,101379.52
2022-10-19T18:16:35.811Z,101383.21
2022-10-19T18:19:08.459Z,101385.66
2022-10-19T18:21:41.539Z,101384.80
2022-10-19T18:24:19.152Z,101388.98
2022-10-19T18:26:50.137Z,101388.98
2022-10-19T18:29:22.447Z,101384.61
2022-10-19T18:31:53.345Z,101387.42
2022-10-19T18:34:26.010Z,101389.16
2022-10-19T18:36:56.599Z,101390.04
2022-10-19T18:39:26.986Z,101389.87
2022-10-19T18:41:57.310Z,101390.22
2022-10-19T18:44:33.495Z,101387.42
2022-10-19T18:47:04.412Z,101387.23
2022-10-19T18:49:35.168Z,101384.21
2022-10-19T18:52:05.636Z,101386.66
2022-10-19T18:54:36.169Z,101383.50
2022-10-19T18:57:06.422Z,101383.50
2022-10-19T18:59:37.251Z,101381.74
2022-10-19T19:02:13.628Z,101380.67
2022-10-19T19:04:53.015Z,101383.13
2022-10-19T19:07:23.471Z,101383.30
2022-10-19T19:10:01.156Z,101393.98
2022-10-19T19:12:32.088Z,101395.36
2022-10-19T19:15:02.539Z,101394.30
2022-10-19T19:17:32.804Z,101398.83
2022-10-19T19:20:03.636Z,101398.98
2022-10-19T19:22:34.328Z,101402.27
2022-10-19T19:25:07.834Z,101403.30
2022-10-19T19:30:10.558Z,101408.02
2022-10-19T19:32:41.297Z,101407.83
2022-10-19T19:35:12.041Z,101408.33
2022-10-19T19:37:42.332Z,101407.95
2022-10-19T19:40:13.424Z,101410.73
2022-10-19T19:42:43.813Z,101415.91
2022-10-19T19:45:14.157Z,101418.30
2022-10-19T19:47:44.626Z,101416.02
2022-10-19T19:50:15.116Z,101418.43
2022-10-19T19:52:45.361Z,101421.34
2022-10-19T19:55:15.808Z,101424.42
2022-10-19T19:57:49.841Z,101427.18
2022-10-19T20:00:20.572Z,101424.37
2022-10-19T20:02:54.727Z,101426.79
2022-10-19T20:05:25.871Z,101431.07
2022-10-19T20:07:56.276Z,101431.33
2022-10-19T20:10:26.884Z,101432.52
2022-10-19T20:12:57.269Z,101430.44
2022-10-19T20:15:27.610Z,101427.83
2022-10-19T20:17:57.859Z,101435.84
2022-10-19T20:20:28.123Z,101432.16
2022-10-19T20:22:58.591Z,101430.38
2022-10-19T20:25:29.015Z,101429.80
2022-10-19T20:27:59.234Z,101431.42
2022-10-19T20:30:31.621Z,101425.61
2022-10-19T20:33:01.873Z,101422.95
2022-10-19T20:35:32.114Z,101420.14
2022-10-19T20:38:03.825Z,101425.20
2022-10-19T20:40:33.963Z,101423.61
2022-10-19T20:43:04.267Z,101430.55
2022-10-19T20:45:34.495Z,101433.30
2022-10-19T20:48:07.170Z,101434.83
2022-10-19T20:50:37.616Z,101431.11
2022-10-19T20:53:09.271Z,101437.35
2022-10-19T20:55:39.807Z,101440.98
2022-10-19T20:58:10.030Z,101442.54
2022-10-19T21:00:40.263Z,101439.92
2022-10-19T21:03:10.829Z,101432.77
2022-10-19T21:05:41.401Z,101441.48
2022-10-19T21:08:15.309Z,101446.14
2022-10-19T21:10:45.572Z,101451.16
2022-10-19T21:13:15.831Z,101452.36
2022-10-19T21:15:46.040Z,101445.01
2022-10-19T21:18:16.304Z,101446.16
2022-10-19T21:20:46.653Z,101442.58
2022-10-19T21:23:18.913Z,101449.63
2022-10-19T21:26:05.527Z,101446.04
2022-10-19T21:28:35.911Z,101449.79
2022-10-19T21:31:07.687Z,101444.70
2022-10-19T21:33:41.239Z,101446.43
2022-10-19T21:36:12.842Z,101445.02
2022-10-19T21:38:43.689Z,101449.04
2022-10-19T21:41:16.434Z,101453.42
2022-10-19T21:43:46.923Z,101462.67
2022-10-19T21:46:19.060Z,101463.77
2022-10-19T21:48:49.626Z,101461.88
2022-10-19T21:51:34.457Z,101458.42
2022-10-19T21:54:06.102Z,101457.61
2022-10-19T21:56:37.655Z,101458.52
2022-10-19T21:59:07.943Z,101461.13
2022-10-19T22:01:41.062Z,101466.20
2022-10-19T22:04:14.843Z,101465.64
2022-10-19T22:06:45.499Z,101463.27
2022-10-19T22:09:17.811Z,101462.41
2022-10-19T22:11:48.399Z,101463.15
2022-10-19T22:14:18.967Z,101464.25
2022-10-19T22:16:49.611Z,101468.06
2022-10-19T22:19:20.252Z,101471.70
2022-10-19T22:21:50.531Z,101472.73
2022-10-19T22:24:21.885Z,101468.41
2022-10-19T22:26:52.101Z,101471.21
2022-10-19T22:29:22.364Z,101477.66
2022-10-19T22:31:52.561Z,101473.82
2022-10-19T22:34:23.050Z,101477.99
2022-10-19T22:36:53.324Z,101482.23
2022-10-19T22:39:26.956Z,101479.30
2022-10-19T22:41:58.263Z,101484.02
2022-10-19T22:44:28.581Z,101485.74
2022-10-19T22:46:59.449Z,101484.59
2022-10-19T22:49:29.739Z,101481.36
2022-10-19T22:51:59.917Z,101482.83
2022-10-19T22:54:30.137Z,101481.80
2022-10-19T22:57:00.362Z,101480.17
2022-10-19T22:59:30.546Z,101483.20
2022-10-19T23:02:00.936Z,101480.00
2022-10-19T23:04:31.221Z,101479.94
2022-10-19T23:07:01.551Z,101481.06
2022-10-19T23:09:31.914Z,101481.87
2022-10-19T23:12:02.109Z,101484.46
2022-10-19T23:14:32.525Z,101483.52
2022-10-19T23:17:02.702Z,101480.14
2022-10-19T23:19:32.897Z,101482.08
2022-10-19T23:22:03.129Z,101479.27
2022-10-19T23:24:33.477Z,101478.34
2022-10-19T23:27:03.729Z,101477.09
2022-10-19T23:29:34.012Z,101475.03
2022-10-19T23:32:04.224Z,101473.83
2022-10-19T23:37:05.985Z,101470.19
2022-10-19T23:39:36.557Z,101473.84
2022-10-19T23:42:07.076Z,101476.60
2022-10-19T23:44:37.385Z,101472.73
2022-10-19T23:47:07.597Z,101469.52
2022-10-19T23:49:37.826Z,101468.44
2022-10-19T23:52:09.168Z,101463.86
2022-10-19T23:54:45.355Z,101467.77
2022-10-19T23:57:15.646Z,101469.13
2022-10-19T23:59:45.823Z,101470.80
